This is the latest recevied weather packets stored in our database for station/object KC7YCE. If no packets are shown the sender has not sent any weather packets the latest 1 day(s).
| Time | Temp. | Humidity | Pressure | Rain* | Wind** | Luminosity | Snow |
|---|---|---|---|---|---|---|---|
| 1778027664 | 4.44° C | 81% | 1015.9 hPa | 0 mm | 0 m/s | - | - |
| 1778027064 | 5° C | 83% | 1015.8 hPa | 0 mm | 0 m/s | - | - |
| 1778026464 | 5.56° C | 80% | 1015.7 hPa | 0 mm | 0 m/s | - | - |
| 1778025864 | 6.11° C | 77% | 1015.6 hPa | 0 mm | 0 m/s | - | - |
| 1778025264 | 5° C | 81% | 1015.6 hPa | 0 mm | 0 m/s | - | - |
| 1778024664 | 5° C | 81% | 1015.7 hPa | 0 mm | 0 m/s | - | - |
| 1778023434 | 4.44° C | 85% | 1015.8 hPa | 0 mm | 0 m/s | - | - |
| 1778020403 | 3.33° C | 90% | 1016.1 hPa | 0 mm | 0 m/s | - | - |
| 1778019803 | 3.33° C | 91% | 1016.1 hPa | 0 mm | 0 m/s | - | - |
| 1778019203 | 3.33° C | 92% | 1016.1 hPa | 0 mm | 0 m/s | - | - |
| 1778018603 | 2.78° C | 92% | 1016.2 hPa | 0 mm | 0 m/s | - | - |
| 1778017976 | 2.78° C | 92% | 1016.3 hPa | 0 mm | 0 m/s | - | - |
| 1778017343 | 2.78° C | 92% | 1016.3 hPa | 0 mm | 0 m/s | - | - |
| 1778016743 | 2.78° C | 93% | 1016.4 hPa | 0 mm | 0 m/s | - | - |
| 1778016143 | 2.22° C | 93% | 1016.4 hPa | 0 mm | 0 m/s | - | - |
| 1778014913 | 2.22° C | 92% | 1016.4 hPa | 0 mm | 0 m/s | - | - |
| 1778014313 | 2.22° C | 92% | 1016.5 hPa | 0 mm | 0 m/s | - | - |
| 1778013113 | 3.33° C | 90% | 1016.5 hPa | 0 mm | 0 m/s | - | - |
| 1778012512 | 3.33° C | 89% | 1016.4 hPa | 0 mm | 0 m/s | - | - |
| 1778011283 | 3.33° C | 91% | 1016.3 hPa | 0 mm | 0.45 m/s, 126° | - | - |
| 1778009482 | 1.67° C | 93% | 1016.4 hPa | 0 mm | 0 m/s | - | - |
| 1778008883 | 1.67° C | 93% | 1016.4 hPa | 0 mm | 0 m/s | - | - |
| 1778007682 | 1.11° C | 94% | 1016.6 hPa | 0 mm | 0 m/s | - | - |
| 1778007082 | 0.56° C | 94% | 1016.6 hPa | 0 mm | 0 m/s | - | - |
| 1778005852 | 0.56° C | 94% | 1016.8 hPa | 0 mm | 0 m/s | - | - |
* Rain latest hour (hover to see other rain measurements)
** Current wind speed in m/s (hover to see current wind gust speed)